Terminal Aerodrome Forecast
Issued by NWS

Current Version | Previous Version | Graphics & Text | Print | Product List | Glossary On
Versions: 1 2 3 4 5 6 7 8 9 10 11 12 13 14 15 16
548
FTUS41 KPBZ 041128
TAFMGW
TAF
KMGW 041128Z 0412/0512 23003KT P6SM OVC035
     FM041700 26008KT P6SM OVC025
     FM042100 28007KT P6SM BKN035=

USA.gov is the U.S. government's official web portal to all federal, state and local government web resources and services.